FDY807 KIPL-KLAX
Flight info
| Callsign | FDY807 |
|---|---|
| Flight time | 1h 12m |
| Altitude | 8000 |
| Route | IPL V458 OCN V23 SLI |
| Aircraft | C208/L-SDFGR/C |
Departure
| Time | 2026-05-07 03:23 |
|---|---|
| Airport | Imperial County Airport (KIPL) |
Arrival
| Time | 2026-05-07 04:36 |
|---|---|
| Airport | Los Angeles International Airport (KLAX) |
| Time | Latitude | Longitude | Altitude | Speed | Heading |
|---|---|---|---|---|---|
| 2026-05-07 02:38 | 32.83567 | -115.57264 | -47 ft | 0 kts | 148° |
| 2026-05-07 03:07 | 32.83567 | -115.57263 | -47 ft | 0 kts | 148° |
| 2026-05-07 03:11 | 32.83566 | -115.57263 | -47 ft | 0 kts | 172° |
| 2026-05-07 03:11 | 32.83555 | -115.57282 | -47 ft | 8 kts | 244° |
| 2026-05-07 03:11 | 32.83516 | -115.57367 | -50 ft | 13 kts | 199° |
| 2026-05-07 03:11 | 32.83451 | -115.57345 | -47 ft | 7 kts | 158° |
| 2026-05-07 03:12 | 32.83427 | -115.57352 | -47 ft | 0 kts | 229° |
| 2026-05-07 03:12 | 32.83419 | -115.57366 | -50 ft | 7 kts | 243° |
| 2026-05-07 03:12 | 32.83383 | -115.57453 | -47 ft | 15 kts | 241° |
| 2026-05-07 03:12 | 32.83327 | -115.57555 | -49 ft | 18 kts | 201° |
| 2026-05-07 03:13 | 32.83258 | -115.57555 | -53 ft | 0 kts | 180° |
| 2026-05-07 03:21 | 32.83243 | -115.57555 | -47 ft | 7 kts | 179° |
| 2026-05-07 03:22 | 32.83210 | -115.57596 | -47 ft | 0 kts | 269° |
| 2026-05-07 03:22 | 32.83210 | -115.57661 | -47 ft | 25 kts | 270° |
| 2026-05-07 03:22 | 32.83213 | -115.58085 | -47 ft | 75 kts | 269° |
| 2026-05-07 03:23 | 32.83207 | -115.58831 | 61 ft | 97 kts | 266° |
| 2026-05-07 03:23 | 32.83369 | -115.59679 | 255 ft | 112 kts | 303° |
| 2026-05-07 03:23 | 32.83996 | -115.60152 | 625 ft | 108 kts | 354° |
| 2026-05-07 03:23 | 32.84670 | -115.59760 | 764 ft | 124 kts | 61° |
| 2026-05-07 03:24 | 32.84676 | -115.58774 | 1033 ft | 123 kts | 121° |
| 2026-05-07 03:24 | 32.84091 | -115.57969 | 1116 ft | 138 kts | 136° |
| 2026-05-07 03:24 | 32.83368 | -115.57164 | 1199 ft | 146 kts | 145° |
| 2026-05-07 03:24 | 32.82394 | -115.56774 | 1231 ft | 153 kts | 170° |
| 2026-05-07 03:25 | 32.81386 | -115.56247 | 1148 ft | 164 kts | 147° |
| 2026-05-07 03:25 | 32.80452 | -115.55440 | 1080 ft | 168 kts | 144° |
| 2026-05-07 03:25 | 32.79493 | -115.54630 | 1014 ft | 170 kts | 146° |
| 2026-05-07 03:25 | 32.78476 | -115.53942 | 934 ft | 171 kts | 163° |
| 2026-05-07 03:26 | 32.77307 | -115.53847 | 913 ft | 168 kts | 188° |
| 2026-05-07 03:26 | 32.76239 | -115.54333 | 982 ft | 161 kts | 214° |
| 2026-05-07 03:26 | 32.75476 | -115.55236 | 1190 ft | 152 kts | 237° |
| 2026-05-07 03:26 | 32.75086 | -115.56371 | 1401 ft | 147 kts | 259° |
| 2026-05-07 03:27 | 32.75059 | -115.57568 | 1626 ft | 144 kts | 272° |
| 2026-05-07 03:27 | 32.75089 | -115.58750 | 1835 ft | 142 kts | 271° |
| 2026-05-07 03:27 | 32.75115 | -115.59916 | 2050 ft | 140 kts | 271° |
| 2026-05-07 03:27 | 32.75144 | -115.61073 | 2268 ft | 140 kts | 272° |
| 2026-05-07 03:28 | 32.75173 | -115.62226 | 2504 ft | 139 kts | 272° |
| 2026-05-07 03:28 | 32.75202 | -115.63376 | 2719 ft | 139 kts | 273° |
| 2026-05-07 03:28 | 32.75232 | -115.64525 | 2935 ft | 139 kts | 273° |
| 2026-05-07 03:28 | 32.75261 | -115.65677 | 3158 ft | 140 kts | 274° |
| 2026-05-07 03:29 | 32.75290 | -115.66831 | 3376 ft | 140 kts | 274° |
| 2026-05-07 03:29 | 32.75318 | -115.67978 | 3587 ft | 141 kts | 274° |
| 2026-05-07 03:29 | 32.75347 | -115.69139 | 3806 ft | 140 kts | 275° |
| 2026-05-07 03:29 | 32.75375 | -115.70302 | 4023 ft | 141 kts | 275° |
| 2026-05-07 03:30 | 32.75405 | -115.71464 | 4241 ft | 141 kts | 275° |
| 2026-05-07 03:30 | 32.75433 | -115.72628 | 4465 ft | 141 kts | 276° |
| 2026-05-07 03:30 | 32.75461 | -115.73792 | 4688 ft | 141 kts | 276° |
| 2026-05-07 03:30 | 32.75489 | -115.74954 | 4905 ft | 141 kts | 276° |
| 2026-05-07 03:31 | 32.75517 | -115.76101 | 5119 ft | 141 kts | 276° |
| 2026-05-07 03:31 | 32.75545 | -115.77262 | 5336 ft | 141 kts | 276° |
| 2026-05-07 03:31 | 32.75573 | -115.78420 | 5556 ft | 140 kts | 276° |
| 2026-05-07 03:31 | 32.75600 | -115.79578 | 5778 ft | 140 kts | 277° |
| 2026-05-07 03:32 | 32.75628 | -115.80734 | 6001 ft | 140 kts | 277° |
| 2026-05-07 03:32 | 32.75656 | -115.81893 | 6225 ft | 140 kts | 277° |
| 2026-05-07 03:32 | 32.75683 | -115.83052 | 6443 ft | 141 kts | 277° |
| 2026-05-07 03:32 | 32.75711 | -115.84223 | 6658 ft | 141 kts | 277° |
| 2026-05-07 03:33 | 32.75739 | -115.85393 | 6875 ft | 142 kts | 277° |
| 2026-05-07 03:33 | 32.75767 | -115.86566 | 7088 ft | 142 kts | 277° |
| 2026-05-07 03:33 | 32.75793 | -115.87728 | 7301 ft | 143 kts | 277° |
| 2026-05-07 03:33 | 32.75820 | -115.88910 | 7519 ft | 143 kts | 277° |
| 2026-05-07 03:34 | 32.75848 | -115.90092 | 7747 ft | 143 kts | 277° |
| 2026-05-07 03:34 | 32.75876 | -115.91277 | 7940 ft | 145 kts | 277° |
| 2026-05-07 03:34 | 32.75909 | -115.92537 | 7957 ft | 159 kts | 277° |
| 2026-05-07 03:34 | 32.75945 | -115.93892 | 7967 ft | 168 kts | 277° |
| 2026-05-07 03:35 | 32.75977 | -115.95301 | 7972 ft | 171 kts | 276° |
| 2026-05-07 03:35 | 32.76006 | -115.96705 | 7970 ft | 172 kts | 276° |
| 2026-05-07 03:35 | 32.76036 | -115.98131 | 7971 ft | 172 kts | 277° |
| 2026-05-07 03:35 | 32.76071 | -115.99556 | 7978 ft | 173 kts | 276° |
| 2026-05-07 03:36 | 32.76102 | -116.00985 | 7978 ft | 173 kts | 276° |
| 2026-05-07 03:36 | 32.76134 | -116.02413 | 7982 ft | 173 kts | 276° |
| 2026-05-07 03:36 | 32.76165 | -116.03847 | 7989 ft | 174 kts | 276° |
| 2026-05-07 03:36 | 32.76320 | -116.05250 | 7988 ft | 169 kts | 296° |
| 2026-05-07 03:37 | 32.76926 | -116.06402 | 7986 ft | 162 kts | 317° |
| 2026-05-07 03:37 | 32.77658 | -116.07401 | 7992 ft | 162 kts | 316° |
| 2026-05-07 03:37 | 32.78387 | -116.08425 | 7996 ft | 162 kts | 316° |
| 2026-05-07 03:37 | 32.79117 | -116.09447 | 7995 ft | 162 kts | 316° |
| 2026-05-07 03:38 | 32.79844 | -116.10465 | 7994 ft | 161 kts | 316° |
| 2026-05-07 03:38 | 32.80572 | -116.11482 | 8000 ft | 161 kts | 316° |
| 2026-05-07 03:38 | 32.81299 | -116.12498 | 7998 ft | 161 kts | 316° |
| 2026-05-07 03:38 | 32.82028 | -116.13518 | 7998 ft | 162 kts | 316° |
| 2026-05-07 03:39 | 32.82758 | -116.14539 | 7995 ft | 162 kts | 316° |
| 2026-05-07 03:39 | 32.83474 | -116.15542 | 7988 ft | 160 kts | 316° |
| 2026-05-07 03:39 | 32.84194 | -116.16553 | 7994 ft | 161 kts | 316° |
| 2026-05-07 03:39 | 32.84921 | -116.17568 | 7996 ft | 162 kts | 316° |
| 2026-05-07 03:40 | 32.85648 | -116.18588 | 7992 ft | 161 kts | 316° |
| 2026-05-07 03:40 | 32.86375 | -116.19606 | 7998 ft | 161 kts | 316° |
| 2026-05-07 03:40 | 32.87101 | -116.20624 | 7996 ft | 161 kts | 316° |
| 2026-05-07 03:40 | 32.87828 | -116.21643 | 7998 ft | 161 kts | 316° |
| 2026-05-07 03:41 | 32.88556 | -116.22663 | 7998 ft | 162 kts | 316° |
| 2026-05-07 03:41 | 32.89286 | -116.23689 | 7998 ft | 163 kts | 316° |
| 2026-05-07 03:41 | 32.90021 | -116.24718 | 8004 ft | 163 kts | 316° |
| 2026-05-07 03:41 | 32.90750 | -116.25740 | 8003 ft | 164 kts | 316° |
| 2026-05-07 03:42 | 32.91487 | -116.26775 | 8001 ft | 163 kts | 316° |
| 2026-05-07 03:42 | 32.92222 | -116.27808 | 8002 ft | 163 kts | 316° |
| 2026-05-07 03:42 | 32.92959 | -116.28842 | 8004 ft | 164 kts | 316° |
| 2026-05-07 03:42 | 32.93700 | -116.29886 | 8003 ft | 165 kts | 316° |
| 2026-05-07 03:43 | 32.94441 | -116.30927 | 8006 ft | 165 kts | 316° |
| 2026-05-07 03:43 | 32.95188 | -116.31975 | 8007 ft | 167 kts | 316° |
| 2026-05-07 03:43 | 32.95936 | -116.33029 | 8004 ft | 166 kts | 316° |
| 2026-05-07 03:43 | 32.96678 | -116.34074 | 8007 ft | 165 kts | 316° |
| 2026-05-07 03:44 | 32.97421 | -116.35119 | 8002 ft | 165 kts | 316° |
| 2026-05-07 03:44 | 32.98160 | -116.36159 | 8003 ft | 164 kts | 316° |
| 2026-05-07 03:44 | 32.98894 | -116.37195 | 8000 ft | 163 kts | 316° |
| 2026-05-07 03:44 | 32.99620 | -116.38215 | 8002 ft | 163 kts | 317° |
| 2026-05-07 03:45 | 33.00352 | -116.39247 | 8003 ft | 163 kts | 316° |
| 2026-05-07 03:45 | 33.01084 | -116.40280 | 8002 ft | 163 kts | 316° |
| 2026-05-07 03:45 | 33.01819 | -116.41316 | 8002 ft | 164 kts | 316° |
| 2026-05-07 03:45 | 33.02554 | -116.42353 | 8000 ft | 163 kts | 317° |
| 2026-05-07 03:46 | 33.03286 | -116.43385 | 7996 ft | 163 kts | 316° |
| 2026-05-07 03:46 | 33.04015 | -116.44414 | 8005 ft | 163 kts | 316° |
| 2026-05-07 03:46 | 33.04749 | -116.45449 | 8005 ft | 164 kts | 316° |
| 2026-05-07 03:46 | 33.05490 | -116.46492 | 8012 ft | 166 kts | 316° |
| 2026-05-07 03:47 | 33.06233 | -116.47542 | 8016 ft | 166 kts | 316° |
| 2026-05-07 03:47 | 33.06983 | -116.48602 | 8011 ft | 167 kts | 316° |
| 2026-05-07 03:47 | 33.07731 | -116.49660 | 8012 ft | 166 kts | 316° |
| 2026-05-07 03:47 | 33.08477 | -116.50714 | 8013 ft | 165 kts | 316° |
| 2026-05-07 03:48 | 33.09209 | -116.51749 | 8014 ft | 165 kts | 316° |
| 2026-05-07 03:48 | 33.09948 | -116.52795 | 8017 ft | 164 kts | 316° |
| 2026-05-07 03:48 | 33.10684 | -116.53836 | 8013 ft | 164 kts | 316° |
| 2026-05-07 03:48 | 33.11418 | -116.54874 | 8035 ft | 163 kts | 316° |
| 2026-05-07 03:49 | 33.12150 | -116.55910 | 8034 ft | 164 kts | 316° |
| 2026-05-07 03:49 | 33.12885 | -116.56950 | 8041 ft | 163 kts | 316° |
| 2026-05-07 03:49 | 33.13611 | -116.57980 | 8044 ft | 165 kts | 315° |
| 2026-05-07 03:49 | 33.14137 | -116.59225 | 8034 ft | 174 kts | 287° |
| 2026-05-07 03:50 | 33.14295 | -116.60653 | 8042 ft | 173 kts | 282° |
| 2026-05-07 03:50 | 33.14469 | -116.62067 | 8049 ft | 171 kts | 283° |
| 2026-05-07 03:50 | 33.14646 | -116.63477 | 8045 ft | 171 kts | 283° |
| 2026-05-07 03:50 | 33.14821 | -116.64875 | 8053 ft | 170 kts | 283° |
| 2026-05-07 03:51 | 33.14994 | -116.66281 | 8055 ft | 172 kts | 283° |
| 2026-05-07 03:51 | 33.15169 | -116.67694 | 8056 ft | 172 kts | 283° |
| 2026-05-07 03:51 | 33.15344 | -116.69111 | 8055 ft | 172 kts | 283° |
| 2026-05-07 03:51 | 33.15515 | -116.70504 | 8058 ft | 171 kts | 283° |
| 2026-05-07 03:52 | 33.15686 | -116.71900 | 8056 ft | 170 kts | 283° |
| 2026-05-07 03:52 | 33.15857 | -116.73297 | 8061 ft | 170 kts | 283° |
| 2026-05-07 03:52 | 33.16029 | -116.74696 | 8056 ft | 170 kts | 283° |
| 2026-05-07 03:52 | 33.16199 | -116.76091 | 8058 ft | 169 kts | 283° |
| 2026-05-07 03:53 | 33.16369 | -116.77474 | 8058 ft | 168 kts | 283° |
| 2026-05-07 03:53 | 33.16535 | -116.78846 | 8062 ft | 164 kts | 282° |
| 2026-05-07 03:53 | 33.16700 | -116.80193 | 8068 ft | 165 kts | 283° |
| 2026-05-07 03:53 | 33.16867 | -116.81554 | 8065 ft | 167 kts | 283° |
| 2026-05-07 03:54 | 33.17034 | -116.82926 | 8067 ft | 167 kts | 283° |
| 2026-05-07 03:54 | 33.17201 | -116.84298 | 8067 ft | 167 kts | 283° |
| 2026-05-07 03:54 | 33.17368 | -116.85672 | 8070 ft | 167 kts | 283° |
| 2026-05-07 03:54 | 33.17479 | -116.86582 | 8068 ft | 167 kts | 282° |
| 2026-05-07 03:55 | 33.17647 | -116.87959 | 8069 ft | 168 kts | 283° |
| 2026-05-07 03:55 | 33.17814 | -116.89336 | 8071 ft | 168 kts | 283° |
| 2026-05-07 03:55 | 33.17981 | -116.90715 | 8070 ft | 168 kts | 283° |
| 2026-05-07 03:55 | 33.18204 | -116.92552 | 8073 ft | 169 kts | 283° |
| 2026-05-07 03:56 | 33.18317 | -116.93486 | 8071 ft | 168 kts | 283° |
| 2026-05-07 03:56 | 33.18484 | -116.94872 | 8072 ft | 169 kts | 283° |
| 2026-05-07 03:56 | 33.18652 | -116.96259 | 8071 ft | 168 kts | 282° |
| 2026-05-07 03:56 | 33.18819 | -116.97643 | 8072 ft | 169 kts | 283° |
| 2026-05-07 03:57 | 33.18985 | -116.99011 | 8073 ft | 169 kts | 283° |
| 2026-05-07 03:57 | 33.19152 | -117.00406 | 8066 ft | 169 kts | 282° |
| 2026-05-07 03:57 | 33.19318 | -117.01793 | 8069 ft | 169 kts | 283° |
| 2026-05-07 03:57 | 33.19485 | -117.03171 | 8066 ft | 167 kts | 282° |
| 2026-05-07 03:58 | 33.19650 | -117.04549 | 8065 ft | 168 kts | 283° |
| 2026-05-07 03:58 | 33.19816 | -117.05934 | 8063 ft | 169 kts | 283° |
| 2026-05-07 03:58 | 33.19983 | -117.07327 | 8058 ft | 169 kts | 283° |
| 2026-05-07 03:58 | 33.20149 | -117.08717 | 8058 ft | 168 kts | 282° |
| 2026-05-07 03:59 | 33.20315 | -117.10099 | 8063 ft | 168 kts | 283° |
| 2026-05-07 03:59 | 33.20481 | -117.11485 | 8063 ft | 169 kts | 283° |
| 2026-05-07 03:59 | 33.20648 | -117.12875 | 8066 ft | 170 kts | 283° |
| 2026-05-07 03:59 | 33.20814 | -117.14273 | 8063 ft | 170 kts | 282° |
| 2026-05-07 04:00 | 33.20980 | -117.15670 | 8065 ft | 169 kts | 283° |
| 2026-05-07 04:00 | 33.21145 | -117.17056 | 8062 ft | 168 kts | 283° |
| 2026-05-07 04:00 | 33.21309 | -117.18444 | 8068 ft | 169 kts | 283° |
| 2026-05-07 04:00 | 33.21477 | -117.19836 | 8065 ft | 169 kts | 283° |
| 2026-05-07 04:01 | 33.21639 | -117.21212 | 8067 ft | 169 kts | 283° |
| 2026-05-07 04:01 | 33.21804 | -117.22601 | 8066 ft | 169 kts | 283° |
| 2026-05-07 04:01 | 33.21969 | -117.23990 | 8066 ft | 169 kts | 282° |
| 2026-05-07 04:01 | 33.22132 | -117.25377 | 8064 ft | 169 kts | 283° |
| 2026-05-07 04:02 | 33.22296 | -117.26765 | 8062 ft | 169 kts | 283° |
| 2026-05-07 04:02 | 33.22460 | -117.28154 | 8064 ft | 169 kts | 283° |
| 2026-05-07 04:02 | 33.22625 | -117.29548 | 8065 ft | 169 kts | 283° |
| 2026-05-07 04:02 | 33.22790 | -117.30940 | 8064 ft | 169 kts | 283° |
| 2026-05-07 04:03 | 33.22954 | -117.32336 | 8064 ft | 170 kts | 283° |
| 2026-05-07 04:03 | 33.23118 | -117.33732 | 8058 ft | 169 kts | 283° |
| 2026-05-07 04:03 | 33.23282 | -117.35124 | 8060 ft | 169 kts | 283° |
| 2026-05-07 04:03 | 33.23444 | -117.36510 | 8056 ft | 169 kts | 283° |
| 2026-05-07 04:04 | 33.23607 | -117.37900 | 8057 ft | 169 kts | 283° |
| 2026-05-07 04:04 | 33.23769 | -117.39277 | 8067 ft | 169 kts | 283° |
| 2026-05-07 04:04 | 33.23932 | -117.40671 | 8066 ft | 169 kts | 283° |
| 2026-05-07 04:04 | 33.24303 | -117.41959 | 8058 ft | 162 kts | 309° |
| 2026-05-07 04:05 | 33.25053 | -117.42932 | 8062 ft | 158 kts | 322° |
| 2026-05-07 04:05 | 33.25847 | -117.43846 | 8085 ft | 158 kts | 321° |
| 2026-05-07 04:05 | 33.26634 | -117.44766 | 8083 ft | 158 kts | 321° |
| 2026-05-07 04:05 | 33.27422 | -117.45685 | 8085 ft | 158 kts | 321° |
| 2026-05-07 04:06 | 33.28212 | -117.46605 | 8085 ft | 158 kts | 321° |
| 2026-05-07 04:06 | 33.29003 | -117.47526 | 8087 ft | 158 kts | 321° |
| 2026-05-07 04:06 | 33.29794 | -117.48447 | 8086 ft | 159 kts | 321° |
| 2026-05-07 04:06 | 33.30584 | -117.49368 | 8085 ft | 159 kts | 321° |
| 2026-05-07 04:07 | 33.31364 | -117.50277 | 8084 ft | 159 kts | 321° |
| 2026-05-07 04:07 | 33.32157 | -117.51202 | 8086 ft | 159 kts | 321° |
| 2026-05-07 04:07 | 33.32948 | -117.52125 | 8084 ft | 159 kts | 321° |
| 2026-05-07 04:07 | 33.33740 | -117.53049 | 8086 ft | 159 kts | 321° |
| 2026-05-07 04:08 | 33.34530 | -117.53971 | 8082 ft | 159 kts | 321° |
| 2026-05-07 04:08 | 33.35321 | -117.54893 | 8085 ft | 159 kts | 321° |
| 2026-05-07 04:08 | 33.36112 | -117.55817 | 8079 ft | 159 kts | 321° |
| 2026-05-07 04:08 | 33.36903 | -117.56740 | 8079 ft | 159 kts | 321° |
| 2026-05-07 04:09 | 33.37695 | -117.57666 | 8078 ft | 159 kts | 321° |
| 2026-05-07 04:09 | 33.38486 | -117.58590 | 8079 ft | 159 kts | 321° |
| 2026-05-07 04:09 | 33.39276 | -117.59513 | 8075 ft | 159 kts | 321° |
| 2026-05-07 04:09 | 33.40066 | -117.60437 | 8079 ft | 158 kts | 321° |
| 2026-05-07 04:10 | 33.40854 | -117.61358 | 8072 ft | 158 kts | 321° |
| 2026-05-07 04:10 | 33.41644 | -117.62282 | 8080 ft | 159 kts | 321° |
| 2026-05-07 04:10 | 33.42434 | -117.63206 | 8071 ft | 159 kts | 321° |
| 2026-05-07 04:10 | 33.43216 | -117.64120 | 8070 ft | 159 kts | 321° |
| 2026-05-07 04:11 | 33.44008 | -117.65047 | 8069 ft | 159 kts | 321° |
| 2026-05-07 04:11 | 33.44799 | -117.65974 | 8068 ft | 159 kts | 321° |
| 2026-05-07 04:11 | 33.45590 | -117.66899 | 8068 ft | 159 kts | 321° |
| 2026-05-07 04:11 | 33.46380 | -117.67827 | 8070 ft | 158 kts | 321° |
| 2026-05-07 04:12 | 33.47170 | -117.68752 | 8071 ft | 159 kts | 321° |
| 2026-05-07 04:12 | 33.47952 | -117.69667 | 8075 ft | 160 kts | 321° |
| 2026-05-07 04:12 | 33.48748 | -117.70601 | 8070 ft | 160 kts | 321° |
| 2026-05-07 04:12 | 33.49541 | -117.71533 | 8073 ft | 159 kts | 321° |
| 2026-05-07 04:13 | 33.50334 | -117.72464 | 8075 ft | 160 kts | 321° |
| 2026-05-07 04:13 | 33.51129 | -117.73400 | 8073 ft | 160 kts | 321° |
| 2026-05-07 04:13 | 33.51924 | -117.74332 | 8075 ft | 160 kts | 321° |
| 2026-05-07 04:13 | 33.52721 | -117.75268 | 8080 ft | 160 kts | 321° |
| 2026-05-07 04:14 | 33.53515 | -117.76202 | 8074 ft | 160 kts | 321° |
| 2026-05-07 04:14 | 33.54311 | -117.77138 | 8077 ft | 160 kts | 320° |
| 2026-05-07 04:14 | 33.55100 | -117.78068 | 8076 ft | 159 kts | 321° |
| 2026-05-07 04:14 | 33.55882 | -117.78985 | 8077 ft | 160 kts | 321° |
| 2026-05-07 04:15 | 33.56679 | -117.79920 | 8078 ft | 160 kts | 321° |
| 2026-05-07 04:15 | 33.57472 | -117.80854 | 8082 ft | 160 kts | 321° |
| 2026-05-07 04:15 | 33.58267 | -117.81788 | 8082 ft | 160 kts | 321° |
| 2026-05-07 04:15 | 33.59063 | -117.82726 | 8079 ft | 160 kts | 321° |
| 2026-05-07 04:16 | 33.59854 | -117.83658 | 8082 ft | 159 kts | 321° |
| 2026-05-07 04:16 | 33.60644 | -117.84589 | 8080 ft | 159 kts | 321° |
| 2026-05-07 04:16 | 33.61421 | -117.85504 | 8082 ft | 159 kts | 321° |
| 2026-05-07 04:16 | 33.62211 | -117.86433 | 8083 ft | 159 kts | 321° |
| 2026-05-07 04:17 | 33.63002 | -117.87366 | 8082 ft | 159 kts | 321° |
| 2026-05-07 04:17 | 33.63795 | -117.88300 | 8084 ft | 159 kts | 321° |
| 2026-05-07 04:17 | 33.64586 | -117.89234 | 8081 ft | 160 kts | 321° |
| 2026-05-07 04:17 | 33.65378 | -117.90166 | 8084 ft | 160 kts | 320° |
| 2026-05-07 04:18 | 33.66170 | -117.91102 | 8082 ft | 160 kts | 320° |
| 2026-05-07 04:18 | 33.66963 | -117.92037 | 8084 ft | 160 kts | 321° |
| 2026-05-07 04:18 | 33.67760 | -117.92978 | 7990 ft | 164 kts | 321° |
| 2026-05-07 04:18 | 33.68556 | -117.93907 | 7726 ft | 153 kts | 321° |
| 2026-05-07 04:19 | 33.69284 | -117.94766 | 7472 ft | 143 kts | 320° |
| 2026-05-07 04:19 | 33.69980 | -117.95594 | 7273 ft | 137 kts | 320° |
| 2026-05-07 04:19 | 33.70648 | -117.96387 | 7067 ft | 136 kts | 320° |
| 2026-05-07 04:19 | 33.71317 | -117.97178 | 6867 ft | 134 kts | 319° |
| 2026-05-07 04:20 | 33.71988 | -117.97968 | 6568 ft | 137 kts | 319° |
| 2026-05-07 04:20 | 33.72675 | -117.98777 | 6278 ft | 139 kts | 318° |
| 2026-05-07 04:20 | 33.73364 | -117.99593 | 5979 ft | 139 kts | 317° |
| 2026-05-07 04:21 | 33.74974 | -118.00776 | 5383 ft | 137 kts | 339° |
| 2026-05-07 04:21 | 33.75783 | -118.01387 | 5103 ft | 138 kts | 324° |
| 2026-05-07 04:21 | 33.76465 | -118.02124 | 5028 ft | 125 kts | 312° |
| 2026-05-07 04:21 | 33.77017 | -118.02914 | 5022 ft | 127 kts | 311° |
| 2026-05-07 04:22 | 33.77629 | -118.03766 | 5040 ft | 140 kts | 312° |
| 2026-05-07 04:22 | 33.78289 | -118.04675 | 5039 ft | 148 kts | 312° |
| 2026-05-07 04:22 | 33.79117 | -118.05397 | 5039 ft | 152 kts | 345° |
| 2026-05-07 04:22 | 33.80204 | -118.05466 | 4865 ft | 158 kts | 360° |
| 2026-05-07 04:23 | 33.81290 | -118.05454 | 4619 ft | 155 kts | 359° |
| 2026-05-07 04:23 | 33.82351 | -118.05448 | 4371 ft | 154 kts | 359° |
| 2026-05-07 04:23 | 33.83423 | -118.05440 | 4124 ft | 154 kts | 359° |
| 2026-05-07 04:23 | 33.84497 | -118.05430 | 3876 ft | 155 kts | 359° |
| 2026-05-07 04:24 | 33.85586 | -118.05418 | 3668 ft | 156 kts | 359° |
| 2026-05-07 04:24 | 33.86682 | -118.05405 | 3423 ft | 157 kts | 359° |
| 2026-05-07 04:24 | 33.87774 | -118.05393 | 3178 ft | 158 kts | 359° |
| 2026-05-07 04:24 | 33.88841 | -118.05381 | 3071 ft | 150 kts | 359° |
| 2026-05-07 04:25 | 33.89855 | -118.05370 | 3060 ft | 143 kts | 359° |
| 2026-05-07 04:25 | 33.90835 | -118.05355 | 3056 ft | 139 kts | 359° |
| 2026-05-07 04:25 | 33.91793 | -118.05341 | 3059 ft | 136 kts | 359° |
| 2026-05-07 04:25 | 33.92737 | -118.05328 | 3061 ft | 135 kts | 359° |
| 2026-05-07 04:26 | 33.93644 | -118.05527 | 3057 ft | 133 kts | 324° |
| 2026-05-07 04:26 | 33.94167 | -118.06419 | 3061 ft | 132 kts | 296° |
| 2026-05-07 04:26 | 33.94594 | -118.07398 | 3059 ft | 132 kts | 297° |
| 2026-05-07 04:26 | 33.95025 | -118.08374 | 3061 ft | 132 kts | 297° |
| 2026-05-07 04:27 | 33.95445 | -118.09337 | 3063 ft | 132 kts | 297° |
| 2026-05-07 04:27 | 33.95873 | -118.10319 | 3067 ft | 133 kts | 297° |
| 2026-05-07 04:27 | 33.96306 | -118.11306 | 3066 ft | 133 kts | 295° |
| 2026-05-07 04:27 | 33.96616 | -118.12360 | 3074 ft | 133 kts | 284° |
| 2026-05-07 04:28 | 33.96701 | -118.13470 | 3073 ft | 133 kts | 267° |
| 2026-05-07 04:28 | 33.96593 | -118.14577 | 3077 ft | 133 kts | 259° |
| 2026-05-07 04:28 | 33.96332 | -118.15643 | 3073 ft | 134 kts | 243° |
| 2026-05-07 04:28 | 33.95995 | -118.16680 | 3069 ft | 132 kts | 263° |
| 2026-05-07 04:29 | 33.95859 | -118.17738 | 3067 ft | 124 kts | 261° |
| 2026-05-07 04:29 | 33.95730 | -118.18747 | 3072 ft | 119 kts | 262° |
| 2026-05-07 04:29 | 33.95620 | -118.19715 | 3068 ft | 117 kts | 264° |
| 2026-05-07 04:29 | 33.95525 | -118.20695 | 3010 ft | 121 kts | 263° |
| 2026-05-07 04:30 | 33.95421 | -118.21690 | 2874 ft | 120 kts | 263° |
| 2026-05-07 04:30 | 33.95323 | -118.22687 | 2712 ft | 120 kts | 263° |
| 2026-05-07 04:30 | 33.95219 | -118.23682 | 2552 ft | 119 kts | 263° |
| 2026-05-07 04:30 | 33.95120 | -118.24663 | 2390 ft | 116 kts | 264° |
| 2026-05-07 04:31 | 33.95028 | -118.25596 | 2236 ft | 109 kts | 263° |
| 2026-05-07 04:31 | 33.94934 | -118.26491 | 2095 ft | 106 kts | 264° |
| 2026-05-07 04:31 | 33.94843 | -118.27366 | 1957 ft | 104 kts | 263° |
| 2026-05-07 04:31 | 33.94762 | -118.28193 | 1823 ft | 90 kts | 263° |
| 2026-05-07 04:32 | 33.94688 | -118.28894 | 1700 ft | 80 kts | 263° |
| 2026-05-07 04:32 | 33.94622 | -118.29545 | 1593 ft | 76 kts | 263° |
| 2026-05-07 04:32 | 33.94557 | -118.30162 | 1488 ft | 72 kts | 264° |
| 2026-05-07 04:32 | 33.94497 | -118.30749 | 1410 ft | 67 kts | 262° |
| 2026-05-07 04:33 | 33.94437 | -118.31317 | 1324 ft | 73 kts | 262° |
| 2026-05-07 04:33 | 33.94375 | -118.31956 | 1219 ft | 78 kts | 263° |
| 2026-05-07 04:33 | 33.94309 | -118.32608 | 1112 ft | 81 kts | 261° |
| 2026-05-07 04:33 | 33.94244 | -118.33281 | 994 ft | 79 kts | 262° |
| 2026-05-07 04:34 | 33.94172 | -118.33935 | 878 ft | 78 kts | 264° |
| 2026-05-07 04:34 | 33.94108 | -118.34583 | 769 ft | 78 kts | 261° |
| 2026-05-07 04:34 | 33.94043 | -118.35227 | 659 ft | 77 kts | 264° |
| 2026-05-07 04:34 | 33.93975 | -118.35865 | 551 ft | 74 kts | 262° |
| 2026-05-07 04:35 | 33.93917 | -118.36471 | 446 ft | 72 kts | 262° |
| 2026-05-07 04:35 | 33.93855 | -118.37072 | 355 ft | 74 kts | 264° |
| 2026-05-07 04:35 | 33.93793 | -118.37685 | 255 ft | 74 kts | 263° |
| 2026-05-07 04:35 | 33.93717 | -118.38292 | 152 ft | 72 kts | 263° |
| 2026-05-07 04:36 | 33.93669 | -118.38808 | 124 ft | 46 kts | 264° |
| 2026-05-07 04:36 | 33.93645 | -118.39080 | 124 ft | 23 kts | 263° |
| 2026-05-07 04:36 | 33.93633 | -118.39304 | 124 ft | 26 kts | 269° |
| 2026-05-07 04:36 | 33.93695 | -118.39377 | 122 ft | 0 kts | 349° |
| 2026-05-07 04:37 | 33.93741 | -118.39376 | 123 ft | 15 kts | 2° |
| 2026-05-07 04:37 | 33.93853 | -118.39375 | 124 ft | 1 kts | 1° |
| 2026-05-07 04:37 | 33.93932 | -118.39409 | 122 ft | 24 kts | 285° |
| 2026-05-07 04:37 | 33.93914 | -118.39637 | 124 ft | 31 kts | 261° |
| 2026-05-07 04:38 | 33.93886 | -118.39915 | 124 ft | 30 kts | 264° |
| 2026-05-07 04:38 | 33.93922 | -118.40049 | 124 ft | 9 kts | 336° |
| 2026-05-07 04:38 | 33.93985 | -118.40060 | 122 ft | 12 kts | 348° |
| 2026-05-07 04:38 | 33.94099 | -118.40079 | 124 ft | 18 kts | 352° |
| 2026-05-07 04:39 | 33.94143 | -118.40138 | 124 ft | 8 kts | 270° |
| 2026-05-07 04:39 | 33.94143 | -118.40143 | 124 ft | 0 kts | 272° |